createdAt,value
2023-04-18T00:00:25.834Z,71.65
2023-04-18T00:03:15.899Z,71.69
2023-04-18T00:05:48.004Z,71.81
2023-04-18T00:08:16.152Z,71.90
2023-04-18T00:10:44.242Z,71.80
2023-04-18T00:13:12.343Z,71.62
2023-04-18T00:15:43.932Z,71.89
2023-04-18T00:18:16.285Z,72.17
2023-04-18T00:20:46.226Z,72.20
2023-04-18T00:23:15.056Z,72.35
2023-04-18T00:25:43.180Z,72.50
2023-04-18T00:28:11.249Z,72.52
2023-04-18T00:30:39.501Z,72.54
2023-04-18T00:33:08.000Z,72.65
2023-04-18T00:35:38.227Z,72.74
2023-04-18T00:38:06.285Z,72.86
2023-04-18T00:40:34.388Z,72.84
2023-04-18T00:43:02.802Z,72.85
2023-04-18T00:45:31.249Z,72.95
2023-04-18T00:47:59.364Z,73.03
2023-04-18T00:50:27.801Z,73.11
2023-04-18T00:52:56.871Z,73.18
2023-04-18T00:55:25.057Z,73.13
2023-04-18T00:57:53.545Z,73.18
2023-04-18T01:00:21.620Z,73.14
2023-04-18T01:02:53.290Z,73.19
2023-04-18T01:05:22.856Z,73.15
2023-04-18T01:07:52.225Z,73.18
2023-04-18T01:10:20.587Z,73.06
2023-04-18T01:13:10.211Z,73.05
2023-04-18T01:15:40.719Z,73.09
2023-04-18T01:18:10.260Z,73.04
2023-04-18T01:20:41.569Z,73.18
2023-04-18T01:23:12.552Z,73.28
2023-04-18T01:25:41.080Z,73.15
2023-04-18T01:28:09.826Z,73.30
2023-04-18T01:30:37.973Z,73.40
2023-04-18T01:33:06.857Z,73.51
2023-04-18T01:35:35.017Z,73.38
2023-04-18T01:38:03.344Z,73.50
2023-04-18T01:40:31.515Z,73.58
2023-04-18T01:43:01.459Z,73.61
2023-04-18T01:45:29.504Z,73.54
2023-04-18T01:47:57.550Z,73.55
2023-04-18T01:50:25.673Z,73.56
2023-04-18T01:52:53.903Z,73.73
2023-04-18T01:55:22.498Z,73.75
2023-04-18T01:57:51.170Z,73.77
2023-04-18T02:00:21.270Z,73.72
2023-04-18T02:02:50.645Z,73.78
2023-04-18T02:05:22.075Z,73.80
2023-04-18T02:07:50.450Z,73.80
2023-04-18T02:10:19.634Z,73.79
2023-04-18T02:12:48.062Z,73.85
2023-04-18T02:15:16.211Z,73.91
2023-04-18T02:17:44.426Z,74.06
2023-04-18T02:20:13.371Z,74.09
2023-04-18T02:22:41.486Z,74.11
2023-04-18T02:25:09.910Z,74.17
2023-04-18T02:27:38.129Z,74.18
2023-04-18T02:30:07.280Z,74.10
2023-04-18T02:32:35.580Z,74.07
2023-04-18T02:35:04.134Z,74.15
2023-04-18T02:37:32.235Z,74.34
2023-04-18T02:40:00.333Z,74.36
2023-04-18T02:42:32.098Z,74.40
2023-04-18T02:45:02.595Z,74.41
2023-04-18T02:47:37.524Z,74.47
2023-04-18T02:50:11.928Z,74.67
2023-04-18T02:52:40.496Z,74.93
2023-04-18T02:55:09.377Z,75.11
2023-04-18T02:57:39.911Z,75.05
2023-04-18T03:00:46.748Z,74.99
2023-04-18T03:03:31.002Z,75.05
2023-04-18T03:06:17.270Z,75.11
2023-04-18T03:08:45.533Z,75.08
2023-04-18T03:11:14.983Z,75.02
2023-04-18T03:13:43.155Z,75.09
2023-04-18T03:16:11.781Z,75.15
2023-04-18T03:18:40.665Z,75.32
2023-04-18T03:21:09.103Z,75.36
2023-04-18T03:23:38.244Z,75.44
2023-04-18T03:26:08.145Z,75.43
2023-04-18T03:28:37.644Z,75.49
2023-04-18T03:31:07.015Z,75.55
2023-04-18T03:33:36.574Z,75.52
2023-04-18T03:36:11.384Z,75.43
2023-04-18T03:38:40.755Z,75.42
2023-04-18T03:41:09.468Z,75.31
2023-04-18T03:43:38.921Z,75.26
2023-04-18T03:46:07.007Z,75.20
2023-04-18T03:48:37.461Z,75.24
2023-04-18T03:51:09.645Z,75.22
2023-04-18T03:53:38.183Z,75.22
2023-04-18T03:56:07.271Z,75.15
2023-04-18T03:58:51.052Z,75.28
2023-04-18T04:01:19.848Z,75.36
2023-04-18T04:03:48.054Z,75.47
2023-04-18T04:17:44.162Z,75.61
2023-04-18T04:20:12.988Z,75.59
2023-04-18T04:22:41.631Z,75.69
2023-04-18T04:25:10.635Z,75.73
2023-04-18T04:27:40.215Z,75.78
2023-04-18T04:30:13.201Z,75.79
2023-04-18T04:32:41.801Z,75.74
2023-04-18T04:35:10.152Z,75.72
2023-04-18T04:37:41.229Z,75.84
2023-04-18T04:40:29.621Z,75.92
2023-04-18T04:43:06.266Z,76.02
2023-04-18T04:45:42.135Z,76.05
2023-04-18T04:48:11.266Z,76.00
2023-04-18T04:50:41.880Z,76.15
2023-04-18T04:53:13.120Z,75.96
2023-04-18T04:55:41.520Z,75.80
2023-04-18T04:58:09.660Z,75.75
2023-04-18T05:00:58.262Z,75.63
2023-04-18T05:03:26.585Z,75.50
2023-04-18T05:05:54.995Z,75.60
2023-04-18T05:08:23.309Z,75.52
2023-04-18T05:10:51.451Z,75.55
2023-04-18T05:13:19.492Z,75.69
2023-04-18T05:15:47.741Z,75.71
2023-04-18T05:18:16.155Z,75.74
2023-04-18T05:20:44.246Z,75.92
2023-04-18T05:23:12.502Z,76.06
2023-04-18T05:25:40.608Z,76.10
2023-04-18T05:28:08.717Z,75.97
2023-04-18T05:30:36.882Z,75.96
2023-04-18T05:33:05.080Z,75.90
2023-04-18T05:35:33.478Z,75.81
2023-04-18T05:38:01.857Z,75.79
2023-04-18T05:40:30.373Z,75.73
2023-04-18T05:42:58.416Z,75.66
2023-04-18T05:45:26.618Z,75.56
2023-04-18T05:47:55.034Z,75.45
2023-04-18T05:50:23.264Z,75.37
2023-04-18T05:52:52.204Z,75.19
2023-04-18T05:55:20.391Z,75.13
2023-04-18T05:57:48.759Z,75.16
2023-04-18T06:00:17.451Z,75.06
2023-04-18T06:02:45.872Z,74.94
2023-04-18T06:05:14.327Z,74.80
2023-04-18T06:07:43.996Z,74.71
2023-04-18T06:10:13.566Z,74.56
2023-04-18T06:12:42.308Z,74.48
2023-04-18T06:15:11.411Z,74.27
2023-04-18T06:17:39.637Z,74.14
2023-04-18T06:26:32.254Z,73.89
2023-04-18T06:29:00.390Z,73.64
2023-04-18T06:31:28.788Z,73.50
2023-04-18T06:33:57.085Z,73.33
2023-04-18T06:36:26.830Z,73.18
2023-04-18T06:38:56.992Z,73.07
2023-04-18T06:41:25.318Z,72.78
2023-04-18T06:44:03.305Z,72.73
2023-04-18T06:46:33.313Z,72.71
2023-04-18T06:49:01.545Z,72.75
2023-04-18T06:51:29.659Z,72.76
2023-04-18T06:53:57.838Z,72.62
2023-04-18T06:56:29.708Z,72.44
2023-04-18T06:58:57.747Z,72.35
2023-04-18T07:01:26.035Z,72.30
2023-04-18T07:03:54.834Z,72.14
2023-04-18T07:06:23.062Z,72.04
2023-04-18T07:08:52.782Z,71.89
2023-04-18T07:11:23.711Z,71.75
2023-04-18T07:13:51.794Z,71.59
2023-04-18T07:16:20.725Z,71.39
2023-04-18T07:18:49.333Z,71.34
2023-04-18T07:46:14.990Z,70.49
2023-04-18T07:48:43.387Z,70.74
2023-04-18T07:51:12.222Z,70.75
2023-04-18T07:53:46.328Z,70.56
2023-04-18T07:56:14.605Z,70.28
2023-04-18T07:58:42.708Z,69.99
2023-04-18T08:01:14.265Z,69.59
2023-04-18T08:03:42.541Z,69.18
2023-04-18T08:06:10.820Z,69.25
2023-04-18T08:08:38.898Z,68.96
2023-04-18T08:11:06.978Z,69.01
2023-04-18T08:13:35.032Z,68.91
2023-04-18T08:16:03.153Z,68.85
2023-04-18T08:18:31.323Z,68.68
2023-04-18T08:20:59.350Z,68.56
2023-04-18T08:23:27.561Z,68.51
2023-04-18T08:25:55.748Z,68.40
2023-04-18T08:28:23.941Z,68.34
2023-04-18T08:30:52.210Z,68.35
2023-04-18T08:33:22.268Z,68.49
2023-04-18T08:35:53.724Z,68.45
2023-04-18T08:38:22.248Z,68.36
2023-04-18T08:40:50.341Z,68.09
2023-04-18T08:43:18.561Z,67.85
2023-04-18T08:45:47.545Z,67.74
2023-04-18T08:48:16.790Z,67.88
2023-04-18T08:50:45.660Z,67.85
2023-04-18T08:53:14.708Z,67.73
2023-04-18T08:55:44.602Z,67.42
2023-04-18T08:58:22.346Z,67.22
2023-04-18T09:00:52.493Z,67.22
2023-04-18T09:03:43.452Z,67.29
2023-04-18T09:06:19.435Z,67.16
2023-04-18T09:09:03.391Z,67.03
2023-04-18T09:11:32.502Z,67.15
2023-04-18T09:14:00.566Z,67.20
2023-04-18T09:16:29.505Z,67.33
2023-04-18T09:19:11.937Z,67.31
2023-04-18T09:21:42.494Z,67.39
2023-04-18T09:24:24.294Z,67.37
2023-04-18T09:26:56.970Z,67.48
2023-04-18T09:29:49.408Z,67.40
2023-04-18T09:32:25.273Z,67.13
2023-04-18T09:35:04.793Z,66.88
2023-04-18T09:37:33.165Z,66.70
2023-04-18T09:40:15.616Z,66.62
2023-04-18T09:42:43.580Z,66.45
2023-04-18T09:45:13.259Z,66.67
2023-04-18T09:47:41.296Z,66.53
2023-04-18T09:50:10.567Z,66.14
2023-04-18T09:52:40.784Z,65.77
2023-04-18T09:55:11.868Z,65.58
2023-04-18T09:57:44.763Z,65.76
2023-04-18T10:00:24.457Z,65.70
2023-04-18T10:03:08.904Z,65.58
2023-04-18T10:05:40.106Z,65.46
2023-04-18T10:08:09.512Z,65.36
2023-04-18T10:10:38.906Z,65.55
2023-04-18T10:13:12.200Z,65.41
2023-04-18T10:15:42.308Z,65.34
2023-04-18T10:18:16.514Z,65.28
2023-04-18T10:20:46.970Z,65.48
2023-04-18T10:23:34.986Z,65.46
2023-04-18T10:26:08.309Z,65.62
2023-04-18T10:29:04.091Z,65.45
2023-04-18T10:31:39.366Z,65.52
2023-04-18T10:34:07.657Z,65.54
2023-04-18T10:36:36.119Z,65.74
2023-04-18T10:39:22.841Z,65.89
2023-04-18T10:41:51.721Z,66.02
2023-04-18T10:44:23.018Z,66.06
2023-04-18T10:46:51.893Z,66.26
2023-04-18T10:49:26.905Z,66.29
2023-04-18T10:52:01.325Z,66.18
2023-04-18T10:54:35.838Z,66.16
2023-04-18T10:57:08.586Z,66.07
2023-04-18T10:59:44.158Z,65.98
2023-04-18T11:02:24.626Z,66.10
2023-04-18T11:04:54.853Z,66.12
2023-04-18T11:07:45.050Z,66.17
2023-04-18T11:10:16.103Z,66.24
2023-04-18T11:12:44.538Z,65.95
2023-04-18T11:15:21.450Z,65.90
2023-04-18T11:18:00.115Z,66.00
2023-04-18T11:20:30.474Z,65.97
2023-04-18T11:23:00.875Z,65.69
2023-04-18T11:25:37.298Z,65.42
2023-04-18T11:28:05.974Z,65.28
2023-04-18T11:30:41.847Z,65.18
2023-04-18T11:33:11.998Z,65.03
2023-04-18T11:35:46.927Z,64.91
2023-04-18T11:38:16.094Z,64.76
2023-04-18T11:40:51.318Z,64.61
2023-04-18T11:43:25.444Z,64.61
2023-04-18T11:46:00.757Z,64.83
2023-04-18T11:48:40.726Z,64.77
2023-04-18T11:51:32.484Z,64.82
2023-04-18T11:54:00.555Z,64.68
2023-04-18T11:56:28.677Z,64.80
2023-04-18T11:58:56.834Z,64.61
2023-04-18T12:01:25.745Z,64.43
2023-04-18T12:04:12.020Z,64.40
2023-04-18T12:06:47.977Z,64.34
2023-04-18T12:09:17.294Z,64.45
2023-04-18T12:11:58.174Z,64.29
2023-04-18T12:14:27.121Z,64.14
2023-04-18T12:16:55.650Z,64.06
2023-04-18T12:19:28.291Z,64.18
2023-04-18T12:22:01.241Z,64.09
2023-04-18T12:24:29.432Z,64.22
2023-04-18T12:26:58.252Z,64.25
2023-04-18T12:29:28.450Z,64.21
2023-04-18T12:31:56.788Z,64.38
2023-04-18T12:34:25.331Z,64.41
2023-04-18T12:36:53.941Z,64.23
2023-04-18T12:39:22.288Z,64.30
2023-04-18T12:41:50.495Z,64.23
2023-04-18T12:44:18.650Z,64.25
2023-04-18T12:46:46.905Z,63.99
2023-04-18T12:49:15.065Z,64.22
2023-04-18T12:51:43.706Z,64.17
2023-04-18T12:54:12.091Z,64.36
2023-04-18T12:56:40.435Z,64.48
2023-04-18T12:59:08.602Z,64.46
2023-04-18T13:01:37.018Z,64.40
2023-04-18T13:04:12.536Z,64.18
2023-04-18T13:06:41.591Z,63.92
2023-04-18T13:09:10.546Z,63.72
2023-04-18T13:11:38.673Z,63.59
2023-04-18T13:14:07.098Z,63.47
2023-04-18T13:16:35.318Z,63.37
2023-04-18T13:19:03.394Z,63.33
2023-04-18T13:21:31.981Z,63.17
2023-04-18T13:24:01.016Z,63.39
2023-04-18T13:26:29.189Z,63.28
2023-04-18T13:28:57.422Z,63.35
2023-04-18T13:31:25.792Z,63.23
2023-04-18T13:33:53.914Z,63.31
2023-04-18T13:36:22.013Z,63.36
2023-04-18T13:38:51.493Z,63.49
2023-04-18T13:41:19.601Z,63.75
2023-04-18T13:43:47.730Z,63.90
2023-04-18T13:46:15.920Z,64.16
2023-04-18T13:48:44.320Z,64.30
2023-04-18T13:51:12.868Z,64.59
2023-04-18T13:53:41.057Z,64.73
2023-04-18T13:56:09.512Z,64.99
2023-04-18T13:58:37.727Z,65.09
2023-04-18T14:01:06.227Z,65.11
2023-04-18T14:03:37.901Z,65.13
2023-04-18T14:06:07.437Z,65.23
2023-04-18T14:08:35.455Z,65.22
2023-04-18T14:11:03.888Z,65.19
2023-04-18T14:13:32.272Z,65.20
2023-04-18T14:16:01.484Z,65.14
2023-04-18T14:18:29.591Z,64.93
2023-04-18T14:20:57.931Z,64.81
2023-04-18T14:23:26.290Z,64.81
2023-04-18T14:25:54.340Z,64.72
2023-04-18T14:28:25.051Z,64.83
2023-04-18T14:30:55.504Z,64.84
2023-04-18T14:33:24.177Z,64.85
2023-04-18T14:35:52.407Z,65.00
2023-04-18T14:38:20.607Z,65.09
2023-04-18T14:40:48.748Z,65.13
2023-04-18T14:43:16.870Z,65.19
2023-04-18T14:45:44.900Z,65.22
2023-04-18T14:48:13.158Z,65.23
2023-04-18T14:50:41.291Z,65.00
2023-04-18T14:53:10.396Z,64.91
2023-04-18T14:55:38.629Z,64.58
2023-04-18T14:58:06.757Z,64.41
2023-04-18T15:00:34.851Z,64.01
2023-04-18T15:03:03.873Z,63.27
2023-04-18T15:05:32.235Z,62.43
2023-04-18T15:08:01.240Z,62.11
2023-04-18T15:10:29.448Z,60.87
2023-04-18T15:12:57.537Z,60.07
2023-04-18T15:15:26.005Z,59.72
2023-04-18T15:17:54.444Z,57.83
2023-04-18T15:20:23.959Z,57.60
2023-04-18T15:22:52.362Z,57.64
2023-04-18T15:25:20.632Z,58.20
2023-04-18T15:27:48.940Z,59.46
2023-04-18T15:30:17.156Z,58.42
2023-04-18T15:32:45.644Z,57.61
2023-04-18T15:35:14.373Z,57.40
2023-04-18T15:37:42.494Z,57.28
2023-04-18T15:40:16.223Z,56.97
2023-04-18T15:42:44.905Z,59.21
2023-04-18T15:45:13.323Z,57.72
2023-04-18T15:47:42.022Z,57.31
2023-04-18T15:50:11.072Z,57.46
2023-04-18T15:52:41.547Z,58.31
2023-04-18T15:55:13.529Z,60.04
2023-04-18T15:57:42.026Z,60.66
2023-04-18T16:00:16.006Z,61.10
2023-04-18T16:02:45.276Z,61.37
2023-04-18T16:05:14.348Z,61.17
2023-04-18T16:07:43.203Z,61.42
2023-04-18T16:10:12.936Z,62.05
2023-04-18T16:12:41.056Z,63.17
2023-04-18T16:15:09.986Z,63.78
2023-04-18T16:17:38.548Z,63.41
2023-04-18T16:20:08.622Z,63.18
2023-04-18T16:22:37.578Z,63.31
2023-04-18T16:25:06.568Z,63.23
2023-04-18T16:27:34.939Z,63.15
2023-04-18T16:30:03.900Z,62.97
2023-04-18T16:32:32.014Z,62.86
2023-04-18T16:35:00.412Z,62.76
2023-04-18T16:37:28.488Z,62.61
2023-04-18T16:39:56.600Z,62.84
2023-04-18T16:42:24.832Z,62.89
2023-04-18T16:44:53.880Z,63.06
2023-04-18T16:47:21.952Z,62.99
2023-04-18T16:49:51.554Z,62.94
2023-04-18T16:52:20.631Z,62.78
2023-04-18T16:54:50.618Z,62.48
2023-04-18T16:57:20.797Z,62.48
2023-04-18T16:59:48.844Z,62.45
2023-04-18T17:02:17.601Z,62.51
2023-04-18T17:04:46.163Z,62.69
2023-04-18T17:07:14.406Z,62.92
2023-04-18T17:09:42.563Z,62.98
2023-04-18T17:12:10.784Z,63.04
2023-04-18T17:14:38.864Z,63.38
2023-04-18T17:17:07.288Z,63.53
2023-04-18T17:19:36.162Z,63.53
2023-04-18T17:22:04.262Z,63.69
2023-04-18T17:24:32.690Z,63.85
2023-04-18T17:27:01.475Z,63.87
2023-04-18T17:29:29.616Z,63.70
2023-04-18T17:31:57.802Z,63.98
2023-04-18T17:34:27.062Z,63.89
2023-04-18T17:36:55.304Z,64.08
2023-04-18T17:39:23.765Z,64.22
2023-04-18T17:42:16.537Z,64.32
2023-04-18T17:44:45.227Z,64.28
2023-04-18T17:47:13.365Z,64.29
2023-04-18T17:49:41.643Z,64.17
2023-04-18T17:52:09.944Z,64.10
2023-04-18T17:54:38.042Z,63.93
2023-04-18T17:57:06.436Z,63.84
2023-04-18T17:59:37.838Z,63.76
2023-04-18T18:02:06.265Z,63.61
2023-04-18T18:04:35.106Z,63.46
2023-04-18T18:07:05.430Z,63.21
2023-04-18T18:09:33.715Z,63.04
2023-04-18T18:12:02.723Z,62.93
2023-04-18T18:14:31.109Z,62.77
2023-04-18T18:16:59.467Z,62.67
2023-04-18T18:19:27.993Z,62.62
2023-04-18T18:21:56.416Z,62.52
2023-04-18T18:24:26.891Z,62.48
2023-04-18T18:26:55.479Z,62.40
2023-04-18T18:29:24.089Z,62.31
2023-04-18T18:31:52.392Z,62.19
2023-04-18T18:34:21.724Z,62.01
2023-04-18T18:36:50.610Z,62.01
2023-04-18T18:39:18.732Z,61.80
2023-04-18T18:41:46.940Z,61.82
2023-04-18T18:44:15.445Z,61.60
2023-04-18T18:46:43.615Z,61.54
2023-04-18T18:49:12.438Z,61.45
2023-04-18T18:51:41.397Z,61.04
2023-04-18T18:54:09.787Z,60.91
2023-04-18T18:56:40.149Z,60.55
2023-04-18T18:59:08.667Z,60.57
2023-04-18T19:01:37.256Z,60.55
2023-04-18T19:04:05.711Z,60.34
2023-04-18T19:06:34.371Z,60.17
2023-04-18T19:09:02.531Z,60.25
2023-04-18T19:11:31.280Z,60.30
2023-04-18T19:13:59.451Z,60.26
2023-04-18T19:16:28.242Z,60.38
2023-04-18T19:18:56.612Z,60.40
2023-04-18T19:21:24.748Z,60.43
2023-04-18T19:23:53.026Z,60.49
2023-04-18T19:26:21.814Z,60.61
2023-04-18T19:28:50.175Z,60.69
2023-04-18T19:31:19.288Z,60.78
2023-04-18T19:33:49.471Z,60.72
2023-04-18T19:36:17.985Z,60.86
2023-04-18T19:38:47.193Z,60.85
2023-04-18T19:41:15.658Z,60.88
2023-04-18T19:43:44.246Z,60.91
2023-04-18T19:46:12.406Z,60.85
2023-04-18T19:48:41.055Z,60.88
2023-04-18T19:51:09.350Z,60.96
2023-04-18T19:53:37.511Z,60.89
2023-04-18T19:56:06.093Z,60.96
2023-04-18T19:58:46.167Z,61.02
2023-04-18T20:01:15.816Z,61.14
2023-04-18T20:03:44.305Z,61.19
2023-04-18T20:06:13.501Z,61.20
2023-04-18T20:08:41.726Z,61.25
2023-04-18T20:11:11.940Z,61.22
2023-04-18T20:13:40.834Z,61.30
2023-04-18T20:16:09.154Z,61.27
2023-04-18T20:18:39.358Z,61.27
2023-04-18T20:21:09.784Z,61.34
2023-04-18T20:23:38.304Z,61.39
2023-04-18T20:26:06.625Z,61.48
2023-04-18T20:28:35.303Z,61.59
2023-04-18T20:31:03.956Z,61.67
2023-04-18T20:33:32.978Z,61.84
2023-04-18T20:36:01.035Z,61.93
2023-04-18T20:38:29.693Z,62.08
2023-04-18T20:40:58.869Z,62.28
2023-04-18T20:43:27.931Z,62.41
2023-04-18T20:45:57.916Z,62.61
2023-04-18T20:48:26.494Z,62.69
2023-04-18T20:50:54.595Z,62.93
2023-04-18T20:53:26.210Z,63.10
2023-04-18T20:55:54.757Z,63.29
2023-04-18T20:58:23.139Z,63.49
2023-04-18T21:00:52.185Z,63.61
2023-04-18T21:03:20.743Z,63.79
2023-04-18T21:05:49.269Z,63.96
2023-04-18T21:08:17.566Z,64.09
2023-04-18T21:10:45.917Z,64.28
2023-04-18T21:13:14.360Z,64.41
2023-04-18T21:15:42.840Z,64.49
2023-04-18T21:18:11.009Z,64.62
2023-04-18T21:20:39.226Z,64.76
2023-04-18T21:23:07.304Z,64.83
2023-04-18T21:25:35.377Z,65.02
2023-04-18T21:28:03.767Z,65.04
2023-04-18T21:30:32.033Z,65.28
2023-04-18T21:33:00.303Z,65.30
2023-04-18T21:35:30.110Z,65.42
2023-04-18T21:37:58.466Z,65.57
2023-04-18T21:40:26.987Z,65.68
2023-04-18T21:42:55.092Z,65.79
2023-04-18T21:45:23.456Z,65.89
2023-04-18T21:47:52.737Z,65.90
2023-04-18T21:50:21.373Z,66.01
2023-04-18T21:52:49.578Z,66.07
2023-04-18T21:55:18.188Z,66.23
2023-04-18T21:57:46.301Z,66.36
2023-04-18T22:00:14.787Z,66.44
2023-04-18T22:02:43.325Z,66.49
2023-04-18T22:05:13.059Z,66.62
2023-04-18T22:07:54.308Z,66.65
2023-04-18T22:10:25.745Z,66.84
2023-04-18T22:12:54.384Z,66.84
2023-04-18T22:15:24.120Z,66.92
2023-04-18T22:17:52.744Z,67.03
2023-04-18T22:20:21.769Z,67.08
2023-04-18T22:22:50.035Z,66.97
2023-04-18T22:25:18.375Z,67.10
2023-04-18T22:27:47.081Z,67.23
2023-04-18T22:30:15.640Z,67.39
2023-04-18T22:32:44.083Z,67.53
2023-04-18T22:35:12.505Z,67.58
2023-04-18T22:37:40.849Z,67.74
2023-04-18T22:40:09.950Z,67.67
2023-04-18T22:42:38.999Z,67.76
2023-04-18T22:45:07.958Z,67.85
2023-04-18T22:47:36.254Z,67.60
2023-04-18T22:50:05.056Z,67.57
2023-04-18T22:52:34.110Z,67.46
2023-04-18T22:55:03.438Z,67.41
2023-04-18T22:57:31.987Z,67.28
2023-04-18T23:00:00.446Z,67.04
2023-04-18T23:02:28.841Z,66.97
2023-04-18T23:04:59.164Z,66.79
2023-04-18T23:07:27.461Z,66.79
2023-04-18T23:09:59.010Z,66.79
2023-04-18T23:12:27.900Z,66.60
2023-04-18T23:14:56.250Z,66.39
2023-04-18T23:17:24.647Z,66.25
2023-04-18T23:19:52.893Z,66.22
2023-04-18T23:22:21.592Z,66.20
2023-04-18T23:24:50.360Z,66.20
2023-04-18T23:27:19.259Z,66.09
2023-04-18T23:29:48.880Z,66.01
2023-04-18T23:32:17.257Z,65.97
2023-04-18T23:34:46.007Z,65.89
2023-04-18T23:37:14.269Z,65.84
2023-04-18T23:39:42.873Z,65.76
2023-04-18T23:42:11.306Z,65.70
2023-04-18T23:44:39.767Z,65.58
2023-04-18T23:47:08.176Z,65.47
2023-04-18T23:49:36.519Z,65.41
2023-04-18T23:52:05.116Z,65.32
2023-04-18T23:54:33.698Z,65.24
2023-04-18T23:57:01.989Z,65.16
2023-04-18T23:59:30.416Z,65.04
